createdAt,value
2019-03-24T00:00:40.123Z,1024.56
2019-03-24T00:01:41.373Z,1024.58
2019-03-24T00:02:40.033Z,1024.55
2019-03-24T00:03:39.983Z,1024.57
2019-03-24T00:04:39.986Z,1024.58
2019-03-24T00:05:39.892Z,1024.58
2019-03-24T00:06:39.845Z,1024.61
2019-03-24T00:07:39.796Z,1024.62
2019-03-24T00:08:39.748Z,1024.60
2019-03-24T00:09:39.701Z,1024.62
2019-03-24T00:10:39.654Z,1024.54
2019-03-24T00:11:39.609Z,1024.60
2019-03-24T00:12:39.563Z,1024.56
2019-03-24T00:13:39.514Z,1024.54
2019-03-24T00:14:39.466Z,1024.56
2019-03-24T00:15:39.423Z,1024.53
2019-03-24T00:16:39.372Z,1024.52
2019-03-24T00:17:39.327Z,1024.57
2019-03-24T00:18:39.278Z,1024.55
2019-03-24T00:19:39.231Z,1024.54
2019-03-24T00:20:39.186Z,1024.57
2019-03-24T00:21:39.138Z,1024.58
2019-03-24T00:22:39.090Z,1024.57
2019-03-24T00:23:39.043Z,1024.58
2019-03-24T00:24:38.996Z,1024.58
2019-03-24T00:25:38.950Z,1024.63
2019-03-24T00:26:38.952Z,1024.64
2019-03-24T00:27:38.855Z,1024.66
2019-03-24T00:28:38.808Z,1024.64
2019-03-24T00:29:38.763Z,1024.69
2019-03-24T00:30:38.714Z,1024.68
2019-03-24T00:31:38.667Z,1024.66
2019-03-24T00:32:38.621Z,1024.66
2019-03-24T00:33:38.576Z,1024.63
2019-03-24T00:34:38.526Z,1024.60
2019-03-24T00:35:38.479Z,1024.61
2019-03-24T00:36:38.433Z,1024.64
2019-03-24T00:37:38.391Z,1024.60
2019-03-24T00:38:38.348Z,1024.60
2019-03-24T00:39:38.293Z,1024.59
2019-03-24T00:40:38.245Z,1024.58
2019-03-24T00:41:38.197Z,1024.62
2019-03-24T00:42:38.151Z,1024.62
2019-03-24T00:43:38.105Z,1024.63
2019-03-24T00:44:38.056Z,1024.62
2019-03-24T00:45:38.010Z,1024.64
2019-03-24T00:46:37.963Z,1024.64
2019-03-24T00:47:37.965Z,1024.65
2019-03-24T00:48:37.868Z,1024.61
2019-03-24T00:49:37.822Z,1024.58
2019-03-24T00:50:37.775Z,1024.62
2019-03-24T00:51:37.726Z,1024.65
2019-03-24T00:52:37.997Z,1024.64
2019-03-24T00:53:37.634Z,1024.67
2019-03-24T00:54:37.586Z,1024.64
2019-03-24T00:55:37.539Z,1024.72
2019-03-24T00:56:37.492Z,1024.69
2019-03-24T00:57:37.782Z,1024.73
2019-03-24T00:58:37.398Z,1024.68
2019-03-24T00:59:37.351Z,1024.71
2019-03-24T01:00:37.307Z,1024.68
2019-03-24T01:01:37.257Z,1024.66
2019-03-24T01:02:37.211Z,1024.66
2019-03-24T01:03:37.163Z,1024.66
2019-03-24T01:04:37.116Z,1024.69
2019-03-24T01:05:37.069Z,1024.68
2019-03-24T01:06:37.027Z,1024.64
2019-03-24T01:07:36.995Z,1024.66
2019-03-24T01:08:36.977Z,1024.62
2019-03-24T01:09:36.881Z,1024.60
2019-03-24T01:10:36.833Z,1024.63
2019-03-24T01:11:36.786Z,1024.59
2019-03-24T01:12:36.744Z,1024.58
2019-03-24T01:13:36.693Z,1024.56
2019-03-24T01:14:36.646Z,1024.57
2019-03-24T01:15:47.163Z,1024.54
2019-03-24T01:16:36.551Z,1024.50
2019-03-24T01:17:36.504Z,1024.53
2019-03-24T01:18:36.458Z,1024.54
2019-03-24T01:19:36.411Z,1024.55
2019-03-24T01:20:36.364Z,1024.50
2019-03-24T01:21:36.317Z,1024.50
2019-03-24T01:22:36.269Z,1024.49
2019-03-24T01:23:36.224Z,1024.45
2019-03-24T01:24:36.177Z,1024.47
2019-03-24T01:25:36.130Z,1024.48
2019-03-24T01:26:36.088Z,1024.46
2019-03-24T01:27:36.043Z,1024.45
2019-03-24T01:28:35.988Z,1024.45
2019-03-24T01:29:35.991Z,1024.45
2019-03-24T01:30:35.893Z,1024.46
2019-03-24T01:31:35.856Z,1024.43
2019-03-24T01:32:35.799Z,1024.44
2019-03-24T01:33:35.753Z,1024.40
2019-03-24T01:34:35.705Z,1024.36
2019-03-24T01:35:35.658Z,1024.39
2019-03-24T01:36:35.611Z,1024.38
2019-03-24T01:37:35.565Z,1024.41
2019-03-24T01:38:35.517Z,1024.41
2019-03-24T01:39:35.471Z,1024.37
2019-03-24T01:40:35.429Z,1024.38
2019-03-24T01:41:35.379Z,1024.39
2019-03-24T01:42:35.331Z,1024.38
2019-03-24T01:43:35.281Z,1024.38
2019-03-24T01:44:35.235Z,1024.39
2019-03-24T01:45:35.188Z,1024.40
2019-03-24T01:46:35.141Z,1024.42
2019-03-24T01:47:35.094Z,1024.42
2019-03-24T01:48:35.050Z,1024.40
2019-03-24T01:49:35.000Z,1024.41
2019-03-24T01:50:34.953Z,1024.40
2019-03-24T01:51:34.906Z,1024.41
2019-03-24T01:52:34.859Z,1024.39
2019-03-24T01:53:34.812Z,1024.39
2019-03-24T01:54:34.764Z,1024.40
2019-03-24T01:55:34.770Z,1024.41
2019-03-24T01:56:34.671Z,1024.39
2019-03-24T01:57:34.625Z,1024.40
2019-03-24T01:58:34.576Z,1024.38
2019-03-24T01:59:34.529Z,1024.38
2019-03-24T02:00:34.483Z,1024.32
2019-03-24T02:01:34.435Z,1024.34
2019-03-24T02:02:34.386Z,1024.32
2019-03-24T02:03:34.341Z,1024.34
2019-03-24T02:04:34.294Z,1024.30
2019-03-24T02:05:34.249Z,1024.30
2019-03-24T02:06:34.198Z,1024.29
2019-03-24T02:07:34.151Z,1024.30
2019-03-24T02:08:34.106Z,1024.30
2019-03-24T02:09:34.059Z,1024.31
2019-03-24T02:10:34.011Z,1024.31
2019-03-24T02:11:33.964Z,1024.27
2019-03-24T02:12:34.233Z,1024.26
2019-03-24T02:13:33.871Z,1024.27
2019-03-24T02:14:33.827Z,1024.28
2019-03-24T02:15:33.776Z,1024.29
2019-03-24T02:16:33.729Z,1024.29
2019-03-24T02:17:33.684Z,1024.28
2019-03-24T02:18:33.634Z,1024.30
2019-03-24T02:19:33.588Z,1024.29
2019-03-24T02:20:33.541Z,1024.27
2019-03-24T02:21:33.494Z,1024.28
2019-03-24T02:22:33.446Z,1024.25
2019-03-24T02:23:33.399Z,1024.27
2019-03-24T02:24:33.351Z,1024.28
2019-03-24T02:25:33.308Z,1024.23
2019-03-24T02:26:33.258Z,1024.21
2019-03-24T02:27:33.212Z,1024.21
2019-03-24T02:28:33.164Z,1024.23
2019-03-24T02:29:33.117Z,1024.21
2019-03-24T02:30:33.071Z,1024.18
2019-03-24T02:31:33.031Z,1024.22
2019-03-24T02:32:32.977Z,1024.23
2019-03-24T02:33:32.931Z,1024.22
2019-03-24T02:34:32.882Z,1024.24
2019-03-24T02:35:32.835Z,1024.25
2019-03-24T02:36:32.789Z,1024.26
2019-03-24T02:37:32.742Z,1024.29
2019-03-24T02:38:32.694Z,1024.28
2019-03-24T02:39:32.646Z,1024.30
2019-03-24T02:40:32.599Z,1024.28
2019-03-24T02:41:32.594Z,1024.30
2019-03-24T02:42:32.506Z,1024.29
2019-03-24T02:43:32.464Z,1024.25
2019-03-24T02:44:32.412Z,1024.23
2019-03-24T02:45:32.370Z,1024.24
2019-03-24T02:46:32.317Z,1024.19
2019-03-24T02:47:32.269Z,1024.16
2019-03-24T02:48:32.223Z,1024.11
2019-03-24T02:49:32.177Z,1024.12
2019-03-24T02:50:32.140Z,1024.10
2019-03-24T02:51:32.085Z,1024.07
2019-03-24T02:52:32.035Z,1024.02
2019-03-24T02:53:31.990Z,1024.06
2019-03-24T02:54:31.941Z,1024.06
2019-03-24T02:55:31.894Z,1024.05
2019-03-24T02:56:31.849Z,1024.09
2019-03-24T02:57:31.800Z,1024.07
2019-03-24T02:58:31.751Z,1024.07
2019-03-24T02:59:31.748Z,1024.04
2019-03-24T03:00:31.660Z,1024.07
2019-03-24T03:01:31.611Z,1024.02
2019-03-24T03:02:31.563Z,1024.06
2019-03-24T03:03:31.519Z,1024.07
2019-03-24T03:04:31.469Z,1024.08
2019-03-24T03:05:31.429Z,1024.06
2019-03-24T03:06:31.379Z,1024.09
2019-03-24T03:07:31.328Z,1024.08
2019-03-24T03:08:31.281Z,1024.11
2019-03-24T03:09:31.234Z,1024.08
2019-03-24T03:10:31.190Z,1024.10
2019-03-24T03:11:31.139Z,1024.09
2019-03-24T03:12:31.092Z,1024.09
2019-03-24T03:13:31.047Z,1024.13
2019-03-24T03:14:30.997Z,1024.15
2019-03-24T03:15:31.006Z,1024.13
2019-03-24T03:16:38.507Z,1024.16
2019-03-24T03:17:30.859Z,1024.18
2019-03-24T03:18:30.809Z,1024.13
2019-03-24T03:19:30.763Z,1024.13
2019-03-24T03:20:30.717Z,1024.13
2019-03-24T03:21:30.669Z,1024.14
2019-03-24T03:22:30.625Z,1024.08
2019-03-24T03:23:30.577Z,1024.10
2019-03-24T03:24:30.528Z,1024.08
2019-03-24T03:25:30.482Z,1024.08
2019-03-24T03:26:30.440Z,1024.10
2019-03-24T03:27:30.386Z,1024.10
2019-03-24T03:28:30.340Z,1024.11
2019-03-24T03:29:30.292Z,1024.11
2019-03-24T03:30:30.259Z,1024.10
2019-03-24T03:31:30.199Z,1024.14
2019-03-24T03:32:30.170Z,1024.07
2019-03-24T03:33:30.107Z,1024.09
2019-03-24T03:34:30.057Z,1024.13
2019-03-24T03:35:30.010Z,1024.11
2019-03-24T03:36:29.963Z,1024.11
2019-03-24T03:37:29.969Z,1024.13
2019-03-24T03:38:29.868Z,1024.11
2019-03-24T03:39:29.838Z,1024.12
2019-03-24T03:40:29.775Z,1024.13
2019-03-24T03:41:29.730Z,1024.12
2019-03-24T03:42:29.680Z,1024.10
2019-03-24T03:43:29.632Z,1024.08
2019-03-24T03:44:29.585Z,1024.09
2019-03-24T03:45:29.538Z,1024.04
2019-03-24T03:46:29.558Z,1024.03
2019-03-24T03:47:29.445Z,1024.03
2019-03-24T03:48:29.398Z,1023.99
2019-03-24T03:49:29.350Z,1024.01
2019-03-24T03:50:29.303Z,1023.99
2019-03-24T03:51:29.255Z,1024.04
2019-03-24T03:52:29.209Z,1024.02
2019-03-24T03:53:29.178Z,1024.01
2019-03-24T03:54:29.114Z,1024.02
2019-03-24T03:55:29.072Z,1023.99
2019-03-24T03:56:29.021Z,1023.99
2019-03-24T03:57:28.973Z,1023.98
2019-03-24T03:58:28.928Z,1023.98
2019-03-24T03:59:28.879Z,1023.97
2019-03-24T04:00:28.832Z,1024.01
2019-03-24T04:01:28.785Z,1023.97
2019-03-24T04:02:28.742Z,1023.97
2019-03-24T04:03:28.707Z,1023.95
2019-03-24T04:04:28.643Z,1023.96
2019-03-24T04:05:28.596Z,1023.95
2019-03-24T04:06:28.548Z,1023.97
2019-03-24T04:07:28.506Z,1023.95
2019-03-24T04:08:28.459Z,1023.97
2019-03-24T04:09:28.407Z,1023.94
2019-03-24T04:10:28.360Z,1023.92
2019-03-24T04:11:28.314Z,1023.93
2019-03-24T04:12:28.272Z,1023.92
2019-03-24T04:13:28.224Z,1023.91
2019-03-24T04:14:28.172Z,1023.92
2019-03-24T04:15:28.139Z,1023.92
2019-03-24T04:16:28.077Z,1023.94
2019-03-24T04:17:28.036Z,1023.95
2019-03-24T04:18:27.983Z,1023.95
2019-03-24T04:19:27.935Z,1023.96
2019-03-24T04:20:27.893Z,1023.95
2019-03-24T04:21:27.845Z,1023.95
2019-03-24T04:22:27.792Z,1023.96
2019-03-24T04:23:27.746Z,1023.96
2019-03-24T04:24:27.702Z,1023.94
2019-03-24T04:25:27.657Z,1023.93
2019-03-24T04:26:27.606Z,1023.93
2019-03-24T04:27:27.570Z,1023.90
2019-03-24T04:28:27.519Z,1023.92
2019-03-24T04:29:27.469Z,1023.94
2019-03-24T04:30:27.416Z,1023.89
2019-03-24T04:31:27.380Z,1023.90
2019-03-24T04:32:27.323Z,1023.90
2019-03-24T04:33:27.304Z,1023.86
2019-03-24T04:34:27.230Z,1023.90
2019-03-24T04:35:27.199Z,1023.86
2019-03-24T04:36:27.143Z,1023.84
2019-03-24T04:37:27.097Z,1023.86
2019-03-24T04:38:27.039Z,1023.84
2019-03-24T04:39:26.992Z,1023.87
2019-03-24T04:40:26.995Z,1023.86
2019-03-24T04:41:26.901Z,1023.87
2019-03-24T04:42:26.855Z,1023.88
2019-03-24T04:43:26.807Z,1023.93
2019-03-24T04:44:26.758Z,1023.93
2019-03-24T04:45:26.709Z,1023.93
2019-03-24T04:46:26.665Z,1023.96
2019-03-24T04:47:26.614Z,1023.97
2019-03-24T04:48:26.567Z,1023.95
2019-03-24T04:49:26.523Z,1023.95
2019-03-24T04:50:26.473Z,1023.92
2019-03-24T04:51:26.425Z,1023.92
2019-03-24T04:52:26.379Z,1023.91
2019-03-24T04:53:26.333Z,1023.86
2019-03-24T04:54:26.284Z,1023.89
2019-03-24T04:55:26.237Z,1023.89
2019-03-24T04:56:26.195Z,1023.90
2019-03-24T04:57:26.143Z,1023.86
2019-03-24T04:58:26.095Z,1023.83
2019-03-24T04:59:26.048Z,1023.84
2019-03-24T05:00:26.002Z,1023.81
2019-03-24T05:01:25.955Z,1023.81
2019-03-24T05:02:25.957Z,1023.79
2019-03-24T05:03:25.865Z,1023.79
2019-03-24T05:04:25.826Z,1023.81
2019-03-24T05:05:25.777Z,1023.81
2019-03-24T05:06:25.724Z,1023.77
2019-03-24T05:07:25.672Z,1023.79
2019-03-24T05:08:25.624Z,1023.77
2019-03-24T05:09:25.579Z,1023.76
2019-03-24T05:10:25.530Z,1023.73
2019-03-24T05:11:25.481Z,1023.69
2019-03-24T05:12:25.435Z,1023.71
2019-03-24T05:13:25.388Z,1023.69
2019-03-24T05:14:25.339Z,1023.70
2019-03-24T05:15:25.294Z,1023.71
2019-03-24T05:16:25.247Z,1023.66
2019-03-24T05:17:27.347Z,1023.65
2019-03-24T05:18:25.152Z,1023.66
2019-03-24T05:19:25.105Z,1023.67
2019-03-24T05:20:25.058Z,1023.67
2019-03-24T05:21:25.010Z,1023.64
2019-03-24T05:22:24.963Z,1023.67
2019-03-24T05:23:24.915Z,1023.64
2019-03-24T05:24:24.872Z,1023.64
2019-03-24T05:25:24.823Z,1023.67
2019-03-24T05:26:24.774Z,1023.66
2019-03-24T05:27:24.727Z,1023.67
2019-03-24T05:28:24.680Z,1023.67
2019-03-24T05:29:24.633Z,1023.71
2019-03-24T05:30:24.585Z,1023.69
2019-03-24T05:31:24.538Z,1023.69
2019-03-24T05:32:24.492Z,1023.71
2019-03-24T05:33:24.445Z,1023.74
2019-03-24T05:34:24.449Z,1023.70
2019-03-24T05:35:24.351Z,1023.69
2019-03-24T05:36:24.306Z,1023.71
2019-03-24T05:37:24.256Z,1023.71
2019-03-24T05:38:24.208Z,1023.70
2019-03-24T05:39:24.162Z,1023.67
2019-03-24T05:40:24.114Z,1023.63
2019-03-24T05:41:24.067Z,1023.68
2019-03-24T05:42:24.019Z,1023.65
2019-03-24T05:43:23.973Z,1023.72
2019-03-24T05:44:23.927Z,1023.70
2019-03-24T05:45:23.879Z,1023.69
2019-03-24T05:46:23.830Z,1023.73
2019-03-24T05:47:23.784Z,1023.68
2019-03-24T05:48:23.737Z,1023.66
2019-03-24T05:49:23.690Z,1023.69
2019-03-24T05:50:23.642Z,1023.69
2019-03-24T05:51:23.596Z,1023.73
2019-03-24T05:52:23.549Z,1023.76
2019-03-24T05:53:23.502Z,1023.72
2019-03-24T05:54:23.454Z,1023.74
2019-03-24T05:55:23.410Z,1023.77
2019-03-24T05:56:23.364Z,1023.75
2019-03-24T05:57:23.313Z,1023.75
2019-03-24T05:58:23.265Z,1023.76
2019-03-24T05:59:23.218Z,1023.79
2019-03-24T06:00:23.170Z,1023.79
2019-03-24T06:01:23.124Z,1023.76
2019-03-24T06:02:23.078Z,1023.77
2019-03-24T06:03:23.029Z,1023.74
2019-03-24T06:04:22.983Z,1023.74
2019-03-24T06:05:22.986Z,1023.72
2019-03-24T06:06:22.987Z,1023.71
2019-03-24T06:07:22.841Z,1023.72
2019-03-24T06:08:22.794Z,1023.72
2019-03-24T06:09:22.747Z,1023.68
2019-03-24T06:10:22.700Z,1023.72
2019-03-24T06:11:22.655Z,1023.67
2019-03-24T06:12:22.606Z,1023.72
2019-03-24T06:13:22.559Z,1023.68
2019-03-24T06:14:22.510Z,1023.68
2019-03-24T06:15:22.465Z,1023.68
2019-03-24T06:16:22.422Z,1023.65
2019-03-24T06:17:22.370Z,1023.63
2019-03-24T06:18:22.323Z,1023.63
2019-03-24T06:19:22.285Z,1023.62
2019-03-24T06:20:22.229Z,1023.61
2019-03-24T06:21:22.182Z,1023.64
2019-03-24T06:22:22.135Z,1023.64
2019-03-24T06:23:22.088Z,1023.63
2019-03-24T06:24:22.080Z,1023.57
2019-03-24T06:25:22.011Z,1023.57
2019-03-24T06:26:22.050Z,1023.54
2019-03-24T06:27:21.899Z,1023.54
2019-03-24T06:28:21.853Z,1023.50
2019-03-24T06:29:21.806Z,1023.50
2019-03-24T06:30:21.760Z,1023.55
2019-03-24T06:31:21.711Z,1023.54
2019-03-24T06:32:21.665Z,1023.54
2019-03-24T06:33:21.618Z,1023.54
2019-03-24T06:34:21.570Z,1023.51
2019-03-24T06:35:21.523Z,1023.53
2019-03-24T06:36:21.478Z,1023.52
2019-03-24T06:37:21.430Z,1023.50
2019-03-24T06:38:21.382Z,1023.49
2019-03-24T06:39:21.343Z,1023.53
2019-03-24T06:40:21.290Z,1023.51
2019-03-24T06:41:21.242Z,1023.48
2019-03-24T06:42:21.193Z,1023.52
2019-03-24T06:43:21.148Z,1023.49
2019-03-24T06:44:21.103Z,1023.43
2019-03-24T06:45:28.401Z,1023.43
2019-03-24T06:46:21.007Z,1023.40
2019-03-24T06:47:21.014Z,1023.39
2019-03-24T06:48:20.915Z,1023.37
2019-03-24T06:49:20.867Z,1023.35
2019-03-24T06:50:20.819Z,1023.39
2019-03-24T06:51:20.775Z,1023.41
2019-03-24T06:52:20.725Z,1023.45
2019-03-24T06:53:20.679Z,1023.40
2019-03-24T06:54:20.639Z,1023.46
2019-03-24T06:55:20.587Z,1023.43
2019-03-24T06:56:20.538Z,1023.47
2019-03-24T06:57:20.499Z,1023.44
2019-03-24T06:58:20.444Z,1023.47
2019-03-24T06:59:20.398Z,1023.47
2019-03-24T07:00:20.352Z,1023.49
2019-03-24T07:02:20.258Z,1023.49
2019-03-24T07:03:20.211Z,1023.52
2019-03-24T07:04:20.164Z,1023.48
2019-03-24T07:05:20.117Z,1023.45
2019-03-24T07:06:20.069Z,1023.46
2019-03-24T07:07:20.024Z,1023.46
2019-03-24T07:08:19.977Z,1023.45
2019-03-24T07:09:19.929Z,1023.40
2019-03-24T07:10:19.881Z,1023.40
2019-03-24T07:11:19.836Z,1023.40
2019-03-24T07:12:19.790Z,1023.42
2019-03-24T07:13:19.743Z,1023.43
2019-03-24T07:14:19.698Z,1023.43
2019-03-24T07:15:19.649Z,1023.46
2019-03-24T07:16:19.601Z,1023.44
2019-03-24T07:17:19.558Z,1023.44
2019-03-24T07:18:19.509Z,1023.46
2019-03-24T07:19:19.465Z,1023.42
2019-03-24T07:20:19.415Z,1023.42
2019-03-24T07:21:19.371Z,1023.45
2019-03-24T07:22:19.322Z,1023.44
2019-03-24T07:23:19.275Z,1023.44
2019-03-24T07:24:19.229Z,1023.44
2019-03-24T07:25:19.182Z,1023.44
2019-03-24T07:26:19.134Z,1023.43
2019-03-24T07:27:19.088Z,1023.44
2019-03-24T07:28:19.041Z,1023.40
2019-03-24T07:29:18.995Z,1023.43
2019-03-24T07:30:19.047Z,1023.38
2019-03-24T07:31:18.952Z,1023.37
2019-03-24T07:32:18.855Z,1023.37
2019-03-24T07:33:18.808Z,1023.38
2019-03-24T07:34:18.761Z,1023.31
2019-03-24T07:35:18.714Z,1023.36
2019-03-24T07:36:18.668Z,1023.31
2019-03-24T07:37:18.622Z,1023.36
2019-03-24T07:38:18.576Z,1023.35
2019-03-24T07:39:18.527Z,1023.32
2019-03-24T07:40:18.482Z,1023.34
2019-03-24T07:41:18.435Z,1023.33
2019-03-24T07:42:18.388Z,1023.38
2019-03-24T07:43:18.341Z,1023.29
2019-03-24T07:44:18.295Z,1023.32
2019-03-24T07:45:18.249Z,1023.33
2019-03-24T07:46:18.201Z,1023.28
2019-03-24T07:47:18.155Z,1023.31
2019-03-24T07:48:19.279Z,1023.36
2019-03-24T07:49:18.063Z,1023.37
2019-03-24T07:50:18.015Z,1023.36
2019-03-24T07:51:17.969Z,1023.38
2019-03-24T07:52:17.923Z,1023.36
2019-03-24T07:53:17.876Z,1023.43
2019-03-24T07:54:17.829Z,1023.40
2019-03-24T07:55:17.784Z,1023.39
2019-03-24T07:56:17.737Z,1023.39
2019-03-24T07:57:17.691Z,1023.42
2019-03-24T07:58:17.643Z,1023.45
2019-03-24T07:59:17.607Z,1023.47
2019-03-24T08:00:17.552Z,1023.44
2019-03-24T08:01:17.505Z,1023.46
2019-03-24T08:02:17.460Z,1023.43
2019-03-24T08:03:17.412Z,1023.44
2019-03-24T08:04:17.366Z,1023.44
2019-03-24T08:05:17.319Z,1023.45
2019-03-24T08:06:17.273Z,1023.47
2019-03-24T08:07:17.227Z,1023.47
2019-03-24T08:08:17.181Z,1023.49
2019-03-24T08:09:17.135Z,1023.48
2019-03-24T08:10:17.088Z,1023.49
2019-03-24T08:11:17.042Z,1023.47
2019-03-24T08:12:16.995Z,1023.45
2019-03-24T08:13:16.950Z,1023.43
2019-03-24T08:14:16.954Z,1023.46
2019-03-24T08:15:16.857Z,1023.49
2019-03-24T08:16:16.814Z,1023.46
2019-03-24T08:17:16.768Z,1023.43
2019-03-24T08:18:16.719Z,1023.43
2019-03-24T08:19:16.675Z,1023.43
2019-03-24T08:20:16.630Z,1023.38
2019-03-24T08:21:16.581Z,1023.35
2019-03-24T08:22:16.534Z,1023.35
2019-03-24T08:23:16.491Z,1023.31
2019-03-24T08:24:16.445Z,1023.27
2019-03-24T08:25:16.397Z,1023.24
2019-03-24T08:26:16.350Z,1023.24
2019-03-24T08:27:16.303Z,1023.22
2019-03-24T08:28:16.258Z,1023.17
2019-03-24T08:29:16.212Z,1023.13
2019-03-24T08:30:16.165Z,1023.12
2019-03-24T08:31:16.118Z,1023.06
2019-03-24T08:32:16.073Z,1023.06
2019-03-24T08:33:16.029Z,1022.97
2019-03-24T08:34:15.981Z,1022.97
2019-03-24T08:35:15.935Z,1022.94
2019-03-24T08:36:15.891Z,1022.92
2019-03-24T08:37:15.843Z,1022.85
2019-03-24T08:38:15.799Z,1022.81
2019-03-24T08:39:15.752Z,1022.84
2019-03-24T08:40:15.705Z,1022.84
2019-03-24T08:41:15.659Z,1022.81
2019-03-24T08:42:15.611Z,1022.85
2019-03-24T08:43:15.564Z,1022.80
2019-03-24T08:44:15.520Z,1022.82
2019-03-24T08:45:15.478Z,1022.81
2019-03-24T08:46:15.426Z,1022.80
2019-03-24T08:47:15.381Z,1022.81
2019-03-24T08:48:15.334Z,1022.83
2019-03-24T08:49:15.292Z,1022.82
2019-03-24T08:50:15.244Z,1022.82
2019-03-24T08:51:15.196Z,1022.78
2019-03-24T08:52:15.150Z,1022.77
2019-03-24T08:53:15.103Z,1022.72
2019-03-24T08:54:15.056Z,1022.72
2019-03-24T08:55:15.010Z,1022.72
2019-03-24T08:56:15.018Z,1022.73
2019-03-24T08:57:14.920Z,1022.69
2019-03-24T08:58:14.873Z,1022.70
2019-03-24T08:59:14.827Z,1022.70
2019-03-24T09:00:14.782Z,1022.68
2019-03-24T09:01:14.735Z,1022.62
2019-03-24T09:02:14.687Z,1022.64
2019-03-24T09:03:14.643Z,1022.63
2019-03-24T09:04:14.597Z,1022.60
2019-03-24T09:05:14.551Z,1022.61
2019-03-24T09:06:14.504Z,1022.63
2019-03-24T09:07:14.460Z,1022.60
2019-03-24T09:08:14.412Z,1022.56
2019-03-24T09:09:14.366Z,1022.52
2019-03-24T09:10:14.319Z,1022.50
2019-03-24T09:11:14.274Z,1022.44
2019-03-24T09:12:14.228Z,1022.39
2019-03-24T09:13:14.182Z,1022.35
2019-03-24T09:14:14.138Z,1022.32
2019-03-24T09:15:14.090Z,1022.31
2019-03-24T09:16:14.048Z,1022.29
2019-03-24T09:17:13.998Z,1022.31
2019-03-24T09:18:13.950Z,1022.26
2019-03-24T09:19:13.904Z,1022.24
2019-03-24T09:20:13.858Z,1022.28
2019-03-24T09:21:13.813Z,1022.30
2019-03-24T09:22:13.766Z,1022.29
2019-03-24T09:23:13.721Z,1022.27
2019-03-24T09:24:13.674Z,1022.28
2019-03-24T09:25:13.629Z,1022.24
2019-03-24T09:26:13.580Z,1022.22
2019-03-24T09:27:13.535Z,1022.24
2019-03-24T09:28:13.493Z,1022.21
2019-03-24T09:29:13.443Z,1022.20
2019-03-24T09:30:13.395Z,1022.18
2019-03-24T09:31:13.350Z,1022.19
2019-03-24T09:32:13.304Z,1022.16
2019-03-24T09:33:13.257Z,1022.19
2019-03-24T09:34:13.215Z,1022.19
2019-03-24T09:35:13.166Z,1022.18
2019-03-24T09:36:13.120Z,1022.15
2019-03-24T09:37:13.126Z,1022.14
2019-03-24T09:38:13.127Z,1022.06
2019-03-24T09:39:13.131Z,1022.08
2019-03-24T09:40:13.135Z,1022.01
2019-03-24T09:41:12.893Z,1022.03
2019-03-24T09:42:12.842Z,1022.04
2019-03-24T09:43:12.795Z,1021.97
2019-03-24T09:44:12.750Z,1022.05
2019-03-24T09:45:12.706Z,1022.02
2019-03-24T09:46:12.664Z,1022.03
2019-03-24T09:47:12.623Z,1022.03
2019-03-24T09:48:12.565Z,1022.05
2019-03-24T09:49:12.519Z,1022.07
2019-03-24T09:50:12.472Z,1022.04
2019-03-24T09:51:12.426Z,1022.06
2019-03-24T09:52:12.385Z,1022.06
2019-03-24T09:53:12.335Z,1022.09
2019-03-24T09:54:12.287Z,1022.06
2019-03-24T09:55:12.242Z,1022.04
2019-03-24T09:56:12.196Z,1022.01
2019-03-24T09:57:12.150Z,1022.00
2019-03-24T09:58:12.103Z,1021.98
2019-03-24T09:59:12.057Z,1022.00
2019-03-24T10:00:12.211Z,1021.94
2019-03-24T10:01:12.065Z,1021.96
2019-03-24T10:02:11.918Z,1021.93
2019-03-24T10:03:11.872Z,1021.90
2019-03-24T10:04:11.826Z,1021.91
2019-03-24T10:05:11.780Z,1021.89
2019-03-24T10:06:11.733Z,1021.90
2019-03-24T10:07:11.687Z,1021.86
2019-03-24T10:08:11.641Z,1021.90
2019-03-24T10:09:11.595Z,1021.88
2019-03-24T10:10:11.548Z,1021.84
2019-03-24T10:11:11.502Z,1021.84
2019-03-24T10:12:11.455Z,1021.81
2019-03-24T10:13:11.416Z,1021.77
2019-03-24T10:14:11.363Z,1021.75
2019-03-24T10:15:11.318Z,1021.69
2019-03-24T10:16:11.274Z,1021.71
2019-03-24T10:17:11.227Z,1021.68
2019-03-24T10:18:11.179Z,1021.64
2019-03-24T10:19:14.367Z,1021.62
2019-03-24T10:20:11.088Z,1021.62
2019-03-24T10:21:11.043Z,1021.56
2019-03-24T10:22:10.996Z,1021.54
2019-03-24T10:23:10.948Z,1021.55
2019-03-24T10:24:11.002Z,1021.54
2019-03-24T10:25:10.856Z,1021.52
2019-03-24T10:26:10.809Z,1021.56
2019-03-24T10:27:10.763Z,1021.53
2019-03-24T10:28:10.717Z,1021.50
2019-03-24T10:29:10.670Z,1021.50
2019-03-24T10:30:10.626Z,1021.54
2019-03-24T10:31:10.578Z,1021.55
2019-03-24T10:32:10.532Z,1021.50
2019-03-24T10:33:10.486Z,1021.54
2019-03-24T10:34:10.442Z,1021.56
2019-03-24T10:35:10.393Z,1021.48
2019-03-24T10:36:10.347Z,1021.49
2019-03-24T10:37:10.300Z,1021.51
2019-03-24T10:38:10.254Z,1021.51
2019-03-24T10:39:10.208Z,1021.48
2019-03-24T10:40:10.169Z,1021.47
2019-03-24T10:41:10.116Z,1021.46
2019-03-24T10:42:10.069Z,1021.49
2019-03-24T10:43:10.023Z,1021.46
2019-03-24T10:44:09.979Z,1021.48
2019-03-24T10:45:09.931Z,1021.42
2019-03-24T10:46:09.886Z,1021.39
2019-03-24T10:47:09.838Z,1021.37
2019-03-24T10:48:09.791Z,1021.34
2019-03-24T10:49:09.746Z,1021.35
2019-03-24T10:50:09.699Z,1021.34
2019-03-24T10:51:09.652Z,1021.29
2019-03-24T10:52:09.607Z,1021.27
2019-03-24T10:53:09.564Z,1021.29
2019-03-24T10:54:09.514Z,1021.26
2019-03-24T10:55:09.472Z,1021.27
2019-03-24T10:56:09.422Z,1021.28
2019-03-24T10:57:09.376Z,1021.22
2019-03-24T10:58:09.328Z,1021.17
2019-03-24T10:59:09.283Z,1021.17
2019-03-24T11:00:09.235Z,1021.11
2019-03-24T11:01:09.191Z,1021.07
2019-03-24T11:02:09.146Z,1021.08
2019-03-24T11:03:09.100Z,1021.04
2019-03-24T11:04:09.051Z,1021.02
2019-03-24T11:05:09.004Z,1021.01
2019-03-24T11:06:09.013Z,1021.01
2019-03-24T11:07:08.912Z,1020.98
2019-03-24T11:08:08.874Z,1020.92
2019-03-24T11:09:08.821Z,1020.89
2019-03-24T11:10:08.773Z,1020.88
2019-03-24T11:11:08.727Z,1020.88
2019-03-24T11:12:08.680Z,1020.81
2019-03-24T11:13:08.635Z,1020.81
2019-03-24T11:14:08.588Z,1020.79
2019-03-24T11:15:08.542Z,1020.77
2019-03-24T11:16:08.496Z,1020.73
2019-03-24T11:17:08.450Z,1020.72
2019-03-24T11:18:08.402Z,1020.69
2019-03-24T11:19:08.355Z,1020.69
2019-03-24T11:20:08.312Z,1020.73
2019-03-24T11:21:08.936Z,1020.68
2019-03-24T11:22:08.218Z,1020.70
2019-03-24T11:23:08.171Z,1020.67
2019-03-24T11:24:08.125Z,1020.63
2019-03-24T11:25:08.082Z,1020.61
2019-03-24T11:26:08.032Z,1020.65
2019-03-24T11:27:07.986Z,1020.64
2019-03-24T11:28:08.039Z,1020.68
2019-03-24T11:29:07.894Z,1020.68
2019-03-24T11:30:07.847Z,1020.66
2019-03-24T11:31:07.800Z,1020.63
2019-03-24T11:32:07.755Z,1020.57
2019-03-24T11:33:07.754Z,1020.57
2019-03-24T11:34:07.662Z,1020.55
2019-03-24T11:35:07.615Z,1020.55
2019-03-24T11:36:07.569Z,1020.50
2019-03-24T11:37:07.523Z,1020.52
2019-03-24T11:38:07.477Z,1020.48
2019-03-24T11:39:07.431Z,1020.43
2019-03-24T11:40:07.383Z,1020.44
2019-03-24T11:41:07.338Z,1020.45
2019-03-24T11:42:07.295Z,1020.50
2019-03-24T11:43:07.245Z,1020.47
2019-03-24T11:44:07.198Z,1020.49
2019-03-24T11:45:07.153Z,1020.51
2019-03-24T11:46:07.107Z,1020.48
2019-03-24T11:47:07.110Z,1020.44
2019-03-24T11:48:07.114Z,1020.42
2019-03-24T11:49:07.117Z,1020.40
2019-03-24T11:50:06.921Z,1020.39
2019-03-24T11:51:06.875Z,1020.36
2019-03-24T11:52:06.827Z,1020.32
2019-03-24T11:53:06.782Z,1020.28
2019-03-24T11:54:06.735Z,1020.30
2019-03-24T11:55:06.689Z,1020.28
2019-03-24T11:56:06.644Z,1020.27
2019-03-24T11:57:06.596Z,1020.26
2019-03-24T11:58:06.552Z,1020.24
2019-03-24T11:59:06.502Z,1020.24
2019-03-24T12:00:06.459Z,1020.25
2019-03-24T12:01:06.418Z,1020.25
2019-03-24T12:02:06.364Z,1020.17
2019-03-24T12:03:06.319Z,1020.14
2019-03-24T12:04:06.272Z,1020.17
2019-03-24T12:05:06.226Z,1020.09
2019-03-24T12:06:14.408Z,1020.05